Eastpoint, Pennsylvania
Current Conditions -  °F | °C
As of 10:54 PM on Friday 24 Oct 2014 (Local Time) from KIPT Reporting Station
Clear Clear  
Wind Chill: 11°   Ceiling: Unl
Heat Index: 11°   Visibility: 10mi
Dew Point:   Wind: 9mph
Humidity: 49%   Direction: 280°W
Pressure: 29.93"   Gusts: NA
Location:  41.5548°N, 76.8911°W
Report Text: KIPT 250254Z AUTO 28008KT 10SM CLR 11/01 A2993 RMK AO2 SLP135 T01110006 51012
Loading
Personal Weather Stations






























Interactive Weather Map
Tropical Storm Tracking
New forecast layout! Learn more

10-Day Weather Forecast

Advertisements
Track Severe Weather on mobile